Mao, Dominican Republic
Current Conditions -  °F | °C
As of 4:00 PM on Thursday 18 Dec 2014 (Local Time) from MDST Reporting Station
Rain Showers Rain Showers  
Wind Chill: 77°   Ceiling: Unl
Heat Index: 79°   Visibility: 5mi
Dew Point: 66°   Wind: 15mph
Humidity: 69%   Direction: 80°E
Pressure: 30"   Gusts: NA
Location:  19.56°N, 71.08°W
Report Text: MDST 182000Z 08013KT 8000 VCSH FEW020 SCT070 25/19 Q1016
Loading
Personal Weather Stations






























Interactive Weather Map New forecast layout! Learn more

10-Day Weather Forecast

Advertisements
Track Severe Weather on mobile